createdAt,value
2023-03-30T00:02:23.424Z,6.22
2023-03-30T00:06:06.026Z,5.28
2023-03-30T00:09:47.879Z,4.63
2023-03-30T00:13:31.346Z,5.65
2023-03-30T00:17:13.172Z,4.50
2023-03-30T00:20:55.030Z,4.93
2023-03-30T00:24:36.873Z,5.10
2023-03-30T00:28:18.711Z,4.63
2023-03-30T00:32:00.668Z,4.53
2023-03-30T00:35:42.650Z,4.03
2023-03-30T00:39:26.665Z,4.75
2023-03-30T00:43:12.038Z,4.15
2023-03-30T00:46:53.895Z,3.25
2023-03-30T00:50:37.375Z,3.03
2023-03-30T00:54:20.629Z,3.10
2023-03-30T00:58:02.546Z,3.13
2023-03-30T01:01:50.245Z,2.28
2023-03-30T01:05:33.194Z,2.90
2023-03-30T01:09:17.073Z,2.75
2023-03-30T01:12:59.153Z,2.22
2023-03-30T01:17:13.659Z,2.63
2023-03-30T01:21:10.577Z,2.20
2023-03-30T01:28:58.503Z,3.08
2023-03-30T01:32:57.086Z,1.90
2023-03-30T01:37:12.430Z,2.72
2023-03-30T01:41:20.196Z,2.45
2023-03-30T01:45:11.384Z,2.17
2023-03-30T01:49:02.127Z,2.70
2023-03-30T01:52:55.941Z,2.30
2023-03-30T01:56:58.735Z,3.55
2023-03-30T02:00:43.863Z,2.85
2023-03-30T02:04:27.115Z,2.47
2023-03-30T02:08:13.534Z,2.78
2023-03-30T02:11:56.558Z,2.47
2023-03-30T02:15:45.627Z,2.53
2023-03-30T02:19:27.973Z,4.07
2023-03-30T02:23:09.838Z,4.13
2023-03-30T02:26:54.298Z,4.22
2023-03-30T02:30:42.616Z,3.67
2023-03-30T02:35:11.708Z,3.63
2023-03-30T02:39:14.983Z,3.25
2023-03-30T02:43:03.520Z,3.30
2023-03-30T02:47:09.202Z,3.85
2023-03-30T02:51:38.270Z,3.00
2023-03-30T02:55:22.476Z,2.72
2023-03-30T02:59:11.022Z,3.20
2023-03-30T03:02:57.584Z,3.60
2023-03-30T03:06:40.466Z,3.08
2023-03-30T03:10:22.346Z,3.53
2023-03-30T03:14:04.423Z,3.38
2023-03-30T03:17:46.949Z,3.60
2023-03-30T03:21:28.883Z,3.15
2023-03-30T03:25:11.747Z,4.00
2023-03-30T03:28:54.002Z,3.28
2023-03-30T03:32:35.929Z,3.20
2023-03-30T03:36:17.867Z,3.20
2023-03-30T03:39:59.682Z,4.05
2023-03-30T03:43:41.706Z,3.20
2023-03-30T03:47:23.590Z,3.92
2023-03-30T03:51:06.249Z,3.45
2023-03-30T03:54:48.162Z,2.88
2023-03-30T03:58:30.159Z,3.75
2023-03-30T04:02:12.018Z,3.58
2023-03-30T04:05:53.959Z,3.90
2023-03-30T04:09:35.763Z,3.72
2023-03-30T04:13:17.598Z,3.15
2023-03-30T04:16:59.407Z,4.25
2023-03-30T04:20:41.226Z,4.15
2023-03-30T04:24:22.997Z,3.95
2023-03-30T04:28:05.280Z,4.53
2023-03-30T04:31:51.088Z,4.38
2023-03-30T04:35:34.083Z,4.30
2023-03-30T04:39:18.156Z,3.58
2023-03-30T04:43:03.972Z,3.63
2023-03-30T04:46:46.188Z,3.83
2023-03-30T04:50:28.061Z,5.18
2023-03-30T04:54:09.968Z,3.70
2023-03-30T04:57:51.769Z,3.30
2023-03-30T05:01:33.576Z,4.18
2023-03-30T05:05:15.505Z,4.53
2023-03-30T05:08:57.289Z,3.97
2023-03-30T05:12:39.321Z,4.85
2023-03-30T05:16:22.337Z,4.80
2023-03-30T05:20:08.614Z,5.25
2023-03-30T05:23:50.489Z,4.03
2023-03-30T05:27:32.293Z,4.57
2023-03-30T05:31:14.156Z,5.32
2023-03-30T05:34:56.706Z,5.50
2023-03-30T05:38:38.614Z,5.45
2023-03-30T05:42:20.422Z,5.57
2023-03-30T05:46:02.725Z,5.25
2023-03-30T05:49:44.653Z,4.90
2023-03-30T05:53:26.673Z,5.75
2023-03-30T05:57:08.541Z,4.95
2023-03-30T06:00:50.521Z,4.93
2023-03-30T06:04:32.716Z,5.75
2023-03-30T06:08:14.864Z,5.43
2023-03-30T06:11:57.331Z,4.78
2023-03-30T06:15:39.133Z,5.45
2023-03-30T06:19:21.099Z,5.65
2023-03-30T06:23:02.946Z,4.15
2023-03-30T06:26:44.761Z,4.95
2023-03-30T06:30:26.760Z,5.43
2023-03-30T06:34:08.725Z,5.05
2023-03-30T06:37:50.572Z,4.72
2023-03-30T06:41:32.365Z,5.35
2023-03-30T06:45:14.829Z,4.60
2023-03-30T06:48:57.017Z,6.15
2023-03-30T06:52:38.975Z,4.82
2023-03-30T06:56:21.298Z,5.47
2023-03-30T07:00:07.302Z,4.93
2023-03-30T07:03:52.232Z,5.00
2023-03-30T07:07:34.864Z,5.15
2023-03-30T07:11:16.717Z,5.63
2023-03-30T07:14:58.490Z,6.38
2023-03-30T07:18:40.522Z,6.25
2023-03-30T07:22:22.416Z,4.95
2023-03-30T07:26:04.502Z,4.47
2023-03-30T07:29:46.394Z,5.03
2023-03-30T07:33:29.735Z,4.82
2023-03-30T07:37:12.463Z,6.18
2023-03-30T07:40:54.556Z,5.20
2023-03-30T07:44:38.020Z,5.53
2023-03-30T07:48:19.841Z,5.80
2023-03-30T07:52:01.997Z,5.60
2023-03-30T07:55:44.472Z,5.30
2023-03-30T07:59:27.048Z,5.13
2023-03-30T08:03:09.051Z,4.13
2023-03-30T08:06:52.808Z,3.28
2023-03-30T08:10:35.223Z,4.15
2023-03-30T08:14:17.126Z,4.25
2023-03-30T08:18:04.472Z,4.28
2023-03-30T08:21:46.413Z,3.72
2023-03-30T08:25:28.465Z,4.43
2023-03-30T08:29:11.280Z,4.20
2023-03-30T08:32:55.778Z,4.88
2023-03-30T08:36:37.799Z,5.13
2023-03-30T08:40:20.470Z,3.38
2023-03-30T08:44:23.218Z,3.38
2023-03-30T08:48:12.792Z,3.92
2023-03-30T08:51:55.765Z,4.30
2023-03-30T08:55:37.609Z,4.18
2023-03-30T08:59:28.455Z,3.72
2023-03-30T09:03:25.016Z,3.60
2023-03-30T09:07:23.603Z,3.92
2023-03-30T09:11:12.676Z,3.15
2023-03-30T09:15:00.284Z,2.90
2023-03-30T09:18:45.413Z,3.55
2023-03-30T09:22:38.472Z,3.30
2023-03-30T09:26:48.098Z,4.22
2023-03-30T09:30:51.496Z,3.75
2023-03-30T09:34:47.962Z,3.05
2023-03-30T09:38:32.393Z,3.47
2023-03-30T09:42:47.641Z,3.55
2023-03-30T09:46:29.947Z,2.80
2023-03-30T09:50:39.516Z,3.67
2023-03-30T09:54:22.582Z,3.10
2023-03-30T09:58:26.717Z,2.72
2023-03-30T10:02:17.368Z,3.33
2023-03-30T10:06:13.418Z,2.80
2023-03-30T10:09:57.769Z,3.90
2023-03-30T10:13:43.217Z,2.97
2023-03-30T10:17:27.025Z,3.00
2023-03-30T10:21:17.977Z,3.08
2023-03-30T10:25:10.196Z,3.33
2023-03-30T10:29:04.677Z,3.22
2023-03-30T10:32:47.157Z,3.05
2023-03-30T10:36:39.831Z,3.03
2023-03-30T10:40:34.201Z,3.25
2023-03-30T10:44:24.127Z,3.58
2023-03-30T10:48:15.121Z,3.55
2023-03-30T10:52:19.064Z,2.83
2023-03-30T10:56:26.508Z,2.58
2023-03-30T11:00:20.595Z,3.28
2023-03-30T11:04:22.633Z,3.38
2023-03-30T11:08:15.263Z,2.97
2023-03-30T11:12:03.259Z,3.65
2023-03-30T11:16:22.098Z,2.38
2023-03-30T11:20:30.673Z,3.00
2023-03-30T11:24:23.990Z,2.75
2023-03-30T11:28:24.242Z,3.45
2023-03-30T11:32:27.320Z,2.83
2023-03-30T11:36:21.043Z,2.55
2023-03-30T11:40:22.024Z,3.30
2023-03-30T11:44:05.344Z,3.10
2023-03-30T11:47:59.277Z,2.95
2023-03-30T11:52:10.462Z,2.75
2023-03-30T11:56:14.125Z,2.58
2023-03-30T12:00:23.407Z,3.03
2023-03-30T12:04:51.562Z,2.55
2023-03-30T12:08:48.385Z,2.40
2023-03-30T12:12:36.533Z,2.60
2023-03-30T12:16:31.917Z,2.97
2023-03-30T12:20:19.768Z,2.22
2023-03-30T12:24:35.548Z,2.22
2023-03-30T12:28:19.471Z,1.02
2023-03-30T12:32:06.073Z,0.80
2023-03-30T12:35:57.586Z,1.13
2023-03-30T12:39:49.303Z,1.42
2023-03-30T12:44:09.143Z,1.48
2023-03-30T12:48:03.206Z,2.38
2023-03-30T12:52:17.873Z,1.73
2023-03-30T12:56:14.195Z,2.95
2023-03-30T13:00:50.417Z,2.63
2023-03-30T13:04:39.641Z,2.85
2023-03-30T13:08:38.697Z,2.53
2023-03-30T13:12:40.236Z,2.35
2023-03-30T13:16:54.968Z,2.72
2023-03-30T13:20:57.553Z,2.72
2023-03-30T13:24:42.447Z,2.15
2023-03-30T13:28:39.560Z,2.50
2023-03-30T13:32:56.557Z,2.45
2023-03-30T13:36:59.936Z,2.72
2023-03-30T13:41:14.446Z,2.00
2023-03-30T13:45:05.213Z,1.52
2023-03-30T13:49:21.028Z,1.92
2023-03-30T13:53:09.282Z,2.35
2023-03-30T13:57:17.358Z,2.67
2023-03-30T14:01:12.586Z,3.50
2023-03-30T14:04:54.557Z,3.15
2023-03-30T14:08:38.915Z,3.38
2023-03-30T14:12:21.685Z,2.70
2023-03-30T14:16:04.137Z,4.40
2023-03-30T14:20:03.111Z,5.60
2023-03-30T14:23:49.952Z,5.60
2023-03-30T14:31:22.411Z,5.43
2023-03-30T14:35:07.232Z,5.57
2023-03-30T14:38:52.523Z,5.32
2023-03-30T14:42:34.501Z,5.38
2023-03-30T14:46:16.828Z,5.72
2023-03-30T14:50:01.978Z,5.82
2023-03-30T14:53:44.374Z,4.97
2023-03-30T14:57:26.849Z,4.68
2023-03-30T15:01:13.273Z,5.25
2023-03-30T15:04:57.397Z,6.22
2023-03-30T15:08:40.117Z,4.70
2023-03-30T15:12:27.266Z,4.35
2023-03-30T15:16:13.078Z,4.72
2023-03-30T15:19:58.158Z,5.07
2023-03-30T15:23:43.648Z,4.25
2023-03-30T15:27:25.728Z,4.00
2023-03-30T15:31:12.473Z,3.90
2023-03-30T15:35:28.592Z,4.68
2023-03-30T15:43:27.993Z,4.15
2023-03-30T15:47:18.044Z,4.07
2023-03-30T15:51:09.637Z,3.72
2023-03-30T15:54:55.443Z,3.78
2023-03-30T15:58:37.758Z,4.50
2023-03-30T16:02:40.706Z,4.05
2023-03-30T16:06:23.791Z,5.57
2023-03-30T16:10:06.339Z,4.75
2023-03-30T16:13:49.667Z,5.22
2023-03-30T16:17:34.010Z,5.07
2023-03-30T16:21:16.200Z,5.07
2023-03-30T16:24:57.988Z,3.72
2023-03-30T16:28:42.530Z,4.90
2023-03-30T16:32:28.204Z,3.72
2023-03-30T16:36:19.044Z,3.63
2023-03-30T16:40:01.484Z,3.70
2023-03-30T16:43:43.337Z,3.45
2023-03-30T16:47:25.261Z,4.88
2023-03-30T16:51:08.259Z,4.57
2023-03-30T16:54:50.266Z,4.75
2023-03-30T16:58:32.132Z,5.40
2023-03-30T17:02:17.510Z,4.78
2023-03-30T17:09:42.617Z,5.80
2023-03-30T17:13:25.002Z,5.85
2023-03-30T17:17:07.357Z,6.72
2023-03-30T17:20:52.163Z,7.93
2023-03-30T17:24:34.323Z,7.50
2023-03-30T17:28:22.451Z,7.80
2023-03-30T17:32:09.072Z,7.30
2023-03-30T17:35:54.814Z,7.70
2023-03-30T17:39:36.642Z,5.82
2023-03-30T17:43:18.622Z,6.97
2023-03-30T17:47:02.380Z,7.57
2023-03-30T17:50:47.911Z,7.93
2023-03-30T17:54:30.717Z,8.15
2023-03-30T17:58:21.729Z,7.78
2023-03-30T18:02:03.735Z,7.32
2023-03-30T18:05:46.682Z,7.32
2023-03-30T18:09:28.468Z,7.80
2023-03-30T18:13:10.510Z,7.10
2023-03-30T18:17:01.355Z,7.35
2023-03-30T18:20:55.912Z,6.93
2023-03-30T18:24:37.881Z,6.45
2023-03-30T18:28:22.832Z,6.95
2023-03-30T18:32:05.055Z,7.03
2023-03-30T18:35:49.199Z,7.32
2023-03-30T18:39:31.178Z,6.40
2023-03-30T18:43:13.469Z,6.57
2023-03-30T18:46:56.018Z,7.50
2023-03-30T18:50:40.144Z,6.80
2023-03-30T18:54:22.026Z,6.40
2023-03-30T18:58:11.961Z,6.95
2023-03-30T19:01:54.416Z,7.13
2023-03-30T19:05:36.597Z,6.40
2023-03-30T19:09:18.517Z,6.78
2023-03-30T19:13:00.734Z,6.47
2023-03-30T19:16:43.375Z,5.15
2023-03-30T19:20:27.315Z,4.25
2023-03-30T19:24:10.245Z,5.03
2023-03-30T19:28:03.291Z,5.28
2023-03-30T19:31:47.225Z,6.63
2023-03-30T19:35:31.088Z,4.78
2023-03-30T19:39:13.593Z,5.65
2023-03-30T19:42:56.655Z,4.95
2023-03-30T19:46:39.234Z,4.53
2023-03-30T19:50:23.399Z,3.10
2023-03-30T19:54:05.628Z,3.75
2023-03-30T19:57:47.609Z,2.50
2023-03-30T20:01:29.576Z,2.92
2023-03-30T20:05:12.953Z,2.22
2023-03-30T20:08:55.072Z,2.08
2023-03-30T20:12:37.403Z,2.03
2023-03-30T20:16:22.531Z,2.65
2023-03-30T20:20:09.078Z,2.50
2023-03-30T20:23:51.156Z,2.03
2023-03-30T20:27:33.796Z,1.88
2023-03-30T20:31:16.581Z,2.03
2023-03-30T20:34:58.711Z,1.70
2023-03-30T20:38:41.333Z,1.80
2023-03-30T20:42:26.451Z,1.02
2023-03-30T20:46:14.467Z,1.83
2023-03-30T20:50:18.035Z,1.23
2023-03-30T20:54:01.047Z,1.65
2023-03-30T20:57:43.608Z,2.05
2023-03-30T21:01:28.585Z,1.48
2023-03-30T21:05:11.174Z,1.75
2023-03-30T21:08:59.251Z,2.10
2023-03-30T21:12:41.773Z,1.20
2023-03-30T21:16:26.006Z,1.58
2023-03-30T21:20:11.141Z,1.95
2023-03-30T21:23:53.269Z,2.20
2023-03-30T21:27:36.186Z,2.05
2023-03-30T21:31:18.184Z,2.55
2023-03-30T21:35:00.035Z,3.50
2023-03-30T21:38:42.081Z,3.83
2023-03-30T21:42:23.943Z,1.90
2023-03-30T21:46:08.399Z,2.70
2023-03-30T21:49:52.205Z,2.17
2023-03-30T21:53:36.345Z,3.08
2023-03-30T21:57:18.194Z,2.25
2023-03-30T22:01:11.653Z,2.53
2023-03-30T22:04:54.453Z,2.15
2023-03-30T22:08:36.689Z,2.78
2023-03-30T22:12:20.594Z,2.00
2023-03-30T22:16:03.913Z,1.65
2023-03-30T22:19:45.982Z,1.17
2023-03-30T22:23:27.826Z,1.70
2023-03-30T22:27:09.701Z,2.17
2023-03-30T22:30:52.269Z,1.95
2023-03-30T22:34:34.743Z,1.90
2023-03-30T22:38:16.682Z,2.10
2023-03-30T22:41:58.508Z,2.60
2023-03-30T22:45:41.745Z,1.90
2023-03-30T22:49:24.862Z,2.30
2023-03-30T22:53:08.001Z,3.40
2023-03-30T22:56:49.940Z,3.33
2023-03-30T23:00:31.886Z,4.57
2023-03-30T23:04:13.718Z,3.50
2023-03-30T23:07:55.514Z,3.45
2023-03-30T23:11:37.370Z,3.67
2023-03-30T23:15:22.098Z,3.53
2023-03-30T23:19:05.078Z,2.55
2023-03-30T23:22:49.257Z,3.38
2023-03-30T23:26:31.086Z,2.78
2023-03-30T23:30:13.352Z,3.25
2023-03-30T23:33:56.362Z,3.10
2023-03-30T23:37:38.227Z,1.98
2023-03-30T23:41:22.105Z,1.70
2023-03-30T23:45:04.248Z,2.40
2023-03-30T23:48:46.197Z,1.77
2023-03-30T23:52:28.014Z,2.50
2023-03-30T23:56:17.573Z,1.83
2023-03-30T23:59:59.672Z,1.75
